Williamsburg, Iowa
Current Conditions -  °F | °C
As of 11:52 PM on Thursday 30 Oct 2014 (Local Time) from KCID Reporting Station
Overcast Overcast  
Wind Chill:   Ceiling: 4600
Heat Index:   Visibility: 10mi
Dew Point:   Wind: 16mph
Humidity: 68%   Direction: 350°N
Pressure: 30.15"   Gusts: 26mph
Location:  41.66°N, 92.01°W
Report Text: KCID 310452Z AUTO 35014G23KT 10SM SCT037 OVC046 08/03 A3015 RMK AO2 SLP213 T00830028
Loading
Personal Weather Stations






























Interactive Weather Map
Tropical Storm Tracking
New forecast layout! Learn more

10-Day Weather Forecast

Advertisements
Track Severe Weather on mobile